Elk Point, Nevada
Current Conditions -  °F | °C
As of 4:53 AM on Friday 19 Dec 2014 (Local Time) from KTVL Reporting Station
Broken Clouds Broken Clouds  
Wind Chill: 33°   Ceiling: 5000
Heat Index: 39°   Visibility: 10mi
Dew Point:   Wind: 9mph
Humidity: 20%   Direction: 160°SSE
Pressure: 30.09"   Gusts: NA
Location:  39.0164°N, 119.925°W
Report Text: KTVL 191253Z AUTO 16008KT 10SM BKN050 04/M17 A3009 RMK AO2 SLP180 T00391172
Loading
Personal Weather Stations






























Interactive Weather Map New forecast layout! Learn more

10-Day Weather Forecast

Advertisements
Track Severe Weather on mobile